Time;durP1;ratioP1;P1;durP2;ratioP2;P2;SDS_P1;SDS_P2;PMS_P1;PMS_P2;Temp;Humidity;BMP_temperature;BMP_pressure;BME280_temperature;BME280_humidity;BME280_pressure;Samples;Min_cycle;Max_cycle;Signal;HPM_P1;HPM_P2
2022/05/11 00:00:42;;;;;;;18.15;9.52;;;16.70;99.90;;;;;;5042789;28;20124;-87
2022/05/11 00:03:08;;;;;;;13.80;9.52;;;16.70;99.90;;;;;;5038872;28;20391;-87
2022/05/11 00:05:35;;;;;;;18.42;10.40;;;16.60;99.90;;;;;;5014011;28;20033;-87
2022/05/11 00:08:01;;;;;;;15.05;9.75;;;16.60;99.90;;;;;;5036795;28;20097;-86
2022/05/11 00:10:26;;;;;;;11.57;9.57;;;16.60;99.90;;;;;;5033641;28;20112;-87
2022/05/11 00:12:52;;;;;;;15.43;8.95;;;16.60;99.90;;;;;;5039861;28;20044;-86
2022/05/11 00:15:21;;;;;;;17.80;9.10;;;16.60;99.90;;;;;;5025558;28;20469;-87
2022/05/11 00:17:46;;;;;;;15.88;9.63;;;16.50;99.90;;;;;;5039726;28;20030;-84
2022/05/11 00:20:14;;;;;;;10.45;9.40;;;16.50;99.90;;;;;;5017934;28;20026;-85
2022/05/11 00:22:39;;;;;;;12.00;9.43;;;16.50;99.90;;;;;;5040283;28;20488;-84
2022/05/11 00:25:08;;;;;;;13.07;9.27;;;16.50;99.90;;;;;;5018639;28;20056;-85
2022/05/11 00:27:33;;;;;;;13.07;9.55;;;16.40;99.90;;;;;;5042996;28;20029;-84
2022/05/11 00:30:02;;;;;;;12.02;9.27;;;16.40;99.90;;;;;;5018160;28;20041;-83
2022/05/11 00:32:28;;;;;;;15.95;9.48;;;16.40;99.90;;;;;;5038519;28;20132;-84
2022/05/11 00:34:54;;;;;;;13.18;9.70;;;16.40;99.90;;;;;;5043745;28;20038;-84
2022/05/11 00:37:21;;;;;;;13.40;9.60;;;16.30;99.90;;;;;;5040666;28;20041;-84
2022/05/11 00:39:47;;;;;;;22.63;9.95;;;16.30;99.90;;;;;;5042047;28;20033;-84
2022/05/11 00:42:13;;;;;;;12.23;9.48;;;16.30;99.90;;;;;;5039019;28;20025;-84
2022/05/11 00:44:39;;;;;;;13.02;10.13;;;16.30;99.90;;;;;;5043327;28;20541;-84
2022/05/11 00:47:14;;;;;;;14.00;9.63;;;16.20;99.90;;;;;;5038934;28;20220;-84
2022/05/11 00:50:13;;;;;;;16.23;10.13;;;16.30;99.90;;;;;;5036122;28;20113;-85
2022/05/11 00:52:58;;;;;;;15.40;10.68;;;16.50;99.90;;;;;;5036196;28;20079;-84
2022/05/11 00:55:32;;;;;;;22.35;12.77;;;16.60;99.90;;;;;;5041841;28;20026;-87
2022/05/11 00:58:09;;;;;;;19.23;12.73;;;16.50;99.90;;;;;;5039330;28;20083;-88
2022/05/11 01:00:36;;;;;;;20.35;12.98;;;16.50;99.90;;;;;;5029106;28;20018;-87
2022/05/11 01:03:32;;;;;;;19.83;13.85;;;16.40;99.90;;;;;;5040965;28;20037;-84
2022/05/11 01:06:00;;;;;;;26.20;14.82;;;16.40;99.90;;;;;;5020417;28;20068;-84
2022/05/11 01:08:30;;;;;;;20.52;13.70;;;16.30;99.90;;;;;;5036044;28;20029;-85
2022/05/11 01:11:08;;;;;;;16.50;13.45;;;16.30;99.90;;;;;;5019922;28;20073;-85
2022/05/11 01:14:08;;;;;;;21.95;16.00;;;16.20;99.90;;;;;;5021380;28;20037;-84
2022/05/11 01:16:35;;;;;;;19.55;12.05;;;16.10;99.90;;;;;;5037283;28;20041;-87
2022/05/11 01:19:02;;;;;;;22.90;12.95;;;16.10;99.90;;;;;;5045578;28;20108;-87
2022/05/11 01:21:58;;;;;;;23.42;12.95;;;16.00;99.90;;;;;;5041570;28;20025;-86
2022/05/11 01:24:39;;;;;;;18.92;12.18;;;16.10;99.90;;;;;;5036866;28;20030;-87
2022/05/11 01:27:35;;;;;;;18.80;12.88;;;16.10;99.90;;;;;;5043460;28;20198;-87
2022/05/11 01:30:31;;;;;;;18.10;13.07;;;16.20;99.90;;;;;;5040187;28;20025;-84
2022/05/11 01:33:03;;;;;;;18.83;13.00;;;16.10;99.90;;;;;;5039617;28;20033;-83
2022/05/11 01:38:46;;;;;;;19.33;12.98;;;16.00;99.90;;;;;;5028759;28;20044;-86
2022/05/11 01:41:32;;;;;;;13.77;12.32;;;15.80;99.90;;;;;;5044489;28;20272;-85
2022/05/11 01:44:05;;;;;;;19.05;12.45;;;15.70;99.90;;;;;;5039458;28;20030;-85
2022/05/11 01:46:40;;;;;;;17.35;12.52;;;15.60;99.90;;;;;;5043358;28;20044;-85
2022/05/11 01:55:46;;;;;;;16.25;11.70;;;15.30;99.90;;;;;;4970582;28;20026;-85
2022/05/11 01:58:12;;;;;;;14.65;12.13;;;15.20;99.90;;;;;;4955314;28;20031;-87
2022/05/11 02:00:40;;;;;;;13.43;11.38;;;15.20;99.90;;;;;;4971625;28;20166;-87
2022/05/11 02:03:06;;;;;;;16.88;11.15;;;15.20;99.90;;;;;;5003387;28;20048;-86
2022/05/11 02:08:27;;;;;;;13.40;10.85;;;15.20;99.90;;;;;;5039234;28;20036;-86
2022/05/11 02:10:53;;;;;;;12.95;11.27;;;15.20;99.90;;;;;;5046302;28;20179;-86
2022/05/11 02:13:19;;;;;;;18.15;11.60;;;15.20;99.90;;;;;;5040889;28;20107;-87
2022/05/11 02:15:44;;;;;;;17.70;11.35;;;15.20;99.90;;;;;;5035359;28;20033;-87
2022/05/11 02:18:10;;;;;;;17.23;12.65;;;15.20;99.90;;;;;;5040904;28;20029;-87
2022/05/11 02:20:36;;;;;;;13.13;11.52;;;15.20;99.90;;;;;;5032336;28;20048;-87
2022/05/11 02:23:13;;;;;;;15.85;12.05;;;15.20;99.90;;;;;;5039483;28;20040;-86
2022/05/11 02:25:48;;;;;;;11.95;10.70;;;15.20;99.90;;;;;;5030800;28;20080;-84
2022/05/11 02:28:17;;;;;;;17.13;11.30;;;15.10;99.90;;;;;;5041651;28;20495;-85
2022/05/11 02:30:46;;;;;;;15.77;10.73;;;15.10;99.90;;;;;;5025509;28;20143;-84
2022/05/11 02:33:13;;;;;;;13.43;11.60;;;15.10;99.90;;;;;;5022330;28;20283;-87
2022/05/11 02:35:39;;;;;;;14.73;10.98;;;15.10;99.90;;;;;;5042601;28;20029;-86
2022/05/11 02:38:15;;;;;;;26.00;11.95;;;15.10;99.90;;;;;;5040979;28;20036;-86
2022/05/11 02:40:42;;;;;;;19.60;11.10;;;15.10;99.90;;;;;;5030232;28;20030;-86
2022/05/11 02:43:17;;;;;;;13.02;10.90;;;15.20;99.90;;;;;;5042323;28;20036;-85
2022/05/11 02:45:43;;;;;;;13.23;11.43;;;15.20;99.90;;;;;;5033844;28;20112;-86
2022/05/11 02:48:23;;;;;;;14.43;10.98;;;15.20;99.90;;;;;;5041000;28;20075;-86
2022/05/11 02:50:54;;;;;;;14.50;11.13;;;15.30;99.90;;;;;;5026790;28;20043;-86
2022/05/11 02:53:22;;;;;;;14.10;10.20;;;15.20;99.90;;;;;;5040287;28;20021;-86
2022/05/11 02:56:06;;;;;;;16.75;11.55;;;15.20;99.90;;;;;;5020778;28;20431;-85
2022/05/11 02:59:11;;;;;;;13.82;11.00;;;15.20;99.90;;;;;;5036756;28;20076;-85
2022/05/11 03:01:36;;;;;;;16.27;11.77;;;15.20;99.90;;;;;;5033375;28;20043;-86
2022/05/11 03:04:02;;;;;;;17.58;12.02;;;15.10;99.90;;;;;;5045639;28;20115;-85
2022/05/11 03:06:28;;;;;;;17.73;11.82;;;15.10;99.90;;;;;;5041967;28;20071;-83
2022/05/11 03:08:54;;;;;;;14.10;11.77;;;15.10;99.90;;;;;;5020830;28;20057;-84
2022/05/11 03:11:20;;;;;;;15.77;11.75;;;15.20;99.90;;;;;;5037085;28;20463;-85
2022/05/11 03:13:46;;;;;;;16.13;11.63;;;15.20;99.90;;;;;;5035444;28;20025;-84
2022/05/11 03:16:11;;;;;;;18.17;11.52;;;15.20;99.90;;;;;;5022342;28;20044;-86
2022/05/11 03:18:37;;;;;;;18.65;10.95;;;15.20;99.90;;;;;;5025426;28;20250;-87
2022/05/11 03:21:03;;;;;;;20.27;12.27;;;15.20;99.90;;;;;;5023848;28;20110;-87
2022/05/11 03:23:28;;;;;;;12.18;10.88;;;15.10;99.90;;;;;;5021033;28;20022;-87
2022/05/11 03:25:55;;;;;;;14.00;12.00;;;15.10;99.90;;;;;;5038821;28;20033;-87
2022/05/11 03:28:21;;;;;;;13.57;11.23;;;15.00;99.90;;;;;;5040857;28;20503;-87
2022/05/11 03:30:50;;;;;;;16.85;12.43;;;14.90;99.90;;;;;;5025509;28;20030;-86
2022/05/11 03:36:00;;;;;;;19.55;12.20;;;14.90;99.90;;;;;;5040045;28;20459;-87
2022/05/11 03:38:26;;;;;;;18.50;12.85;;;14.90;99.90;;;;;;5041453;28;20112;-87
2022/05/11 03:40:51;;;;;;;18.05;12.52;;;14.90;99.90;;;;;;5042782;28;20037;-87
2022/05/11 03:43:17;;;;;;;16.67;12.88;;;14.80;99.90;;;;;;5038744;28;20105;-86
2022/05/11 03:45:43;;;;;;;15.00;11.82;;;14.80;99.90;;;;;;5018609;28;20077;-86
2022/05/11 03:48:09;;;;;;;18.30;12.50;;;14.90;99.90;;;;;;5040020;28;20032;-86
2022/05/11 03:50:34;;;;;;;17.75;11.77;;;14.90;99.90;;;;;;5040681;28;20037;-87
2022/05/11 03:53:00;;;;;;;19.65;12.68;;;14.80;99.90;;;;;;5042131;28;20078;-86
2022/05/11 03:55:26;;;;;;;17.90;12.75;;;14.80;99.90;;;;;;5043917;28;20402;-86
2022/05/11 03:57:52;;;;;;;19.45;12.88;;;14.80;99.90;;;;;;5041087;28;20268;-86
2022/05/11 04:00:21;;;;;;;20.63;13.18;;;14.90;99.90;;;;;;5040816;28;20024;-86
2022/05/11 04:02:48;;;;;;;15.93;11.68;;;14.80;99.90;;;;;;5039276;28;20032;-86
2022/05/11 04:05:18;;;;;;;14.23;12.60;;;14.90;99.90;;;;;;5043509;28;20075;-85
2022/05/11 04:07:43;;;;;;;16.38;12.68;;;14.90;99.90;;;;;;5039994;28;20022;-86
2022/05/11 04:10:11;;;;;;;19.33;12.13;;;14.90;99.90;;;;;;5039349;28;20039;-86
2022/05/11 04:12:40;;;;;;;18.63;13.35;;;14.90;99.90;;;;;;5038423;28;20142;-85
2022/05/11 04:15:07;;;;;;;16.02;12.50;;;15.00;99.90;;;;;;5033644;28;20021;-85
2022/05/11 04:17:33;;;;;;;18.55;11.95;;;15.00;99.90;;;;;;5022477;28;20037;-85
2022/05/11 04:19:59;;;;;;;14.80;12.27;;;15.00;99.90;;;;;;5033108;28;20021;-86
2022/05/11 04:22:30;;;;;;;16.65;13.07;;;15.00;99.90;;;;;;5022626;28;20175;-86
2022/05/11 04:25:00;;;;;;;14.95;11.43;;;15.00;99.90;;;;;;5043605;28;20083;-86
2022/05/11 04:27:29;;;;;;;16.15;12.18;;;15.10;99.90;;;;;;5024586;28;20399;-86
2022/05/11 04:29:55;;;;;;;19.92;12.05;;;15.10;99.90;;;;;;5041727;28;20025;-86
2022/05/11 04:32:30;;;;;;;17.10;10.63;;;15.20;99.90;;;;;;5022110;28;20083;-86
2022/05/11 04:34:59;;;;;;;14.32;11.38;;;15.20;99.90;;;;;;5036793;28;20032;-86
2022/05/11 04:37:28;;;;;;;15.38;11.68;;;15.30;99.90;;;;;;5021842;28;20040;-85
2022/05/11 04:39:54;;;;;;;19.05;11.68;;;15.40;99.90;;;;;;5019239;28;20035;-85
2022/05/11 04:42:19;;;;;;;16.05;12.35;;;15.40;99.90;;;;;;5041040;28;20025;-87
2022/05/11 04:44:45;;;;;;;16.88;11.90;;;15.50;99.90;;;;;;5040795;28;20492;-84
2022/05/11 04:47:13;;;;;;;13.25;11.63;;;15.50;99.90;;;;;;5038432;28;20091;-85
2022/05/11 04:49:43;;;;;;;14.43;11.27;;;15.60;99.90;;;;;;5022416;28;20082;-87
2022/05/11 04:52:15;;;;;;;13.88;11.73;;;15.70;99.90;;;;;;5040104;28;20068;-85
2022/05/11 04:54:43;;;;;;;17.25;11.52;;;15.70;99.90;;;;;;5040593;28;20426;-86
2022/05/11 04:57:20;;;;;;;20.42;11.38;;;15.80;99.90;;;;;;5043139;28;20538;-84
2022/05/11 04:59:45;;;;;;;18.67;11.38;;;15.80;99.90;;;;;;5042160;28;20026;-86
2022/05/11 05:02:17;;;;;;;12.90;10.77;;;16.00;99.90;;;;;;5043040;28;20071;-86
2022/05/11 05:04:45;;;;;;;13.53;11.43;;;16.10;99.90;;;;;;5041294;28;20025;-85
2022/05/11 05:07:12;;;;;;;21.63;11.13;;;16.20;99.90;;;;;;5040976;28;20108;-87
2022/05/11 05:09:37;;;;;;;11.57;10.18;;;16.30;99.90;;;;;;5038205;28;20123;-89
2022/05/11 05:12:05;;;;;;;14.57;10.60;;;16.40;99.90;;;;;;5043417;28;20125;-86
2022/05/11 05:14:30;;;;;;;14.55;10.50;;;16.50;99.90;;;;;;5047076;28;20029;-83
2022/05/11 05:17:04;;;;;;;14.43;10.70;;;16.50;99.90;;;;;;5042638;28;20040;-86
2022/05/11 05:19:31;;;;;;;13.25;10.20;;;16.60;99.90;;;;;;5039789;28;20103;-86
2022/05/11 05:21:57;;;;;;;13.80;10.27;;;16.70;99.90;;;;;;5043686;28;20483;-86
2022/05/11 05:24:23;;;;;;;12.73;10.60;;;16.70;99.90;;;;;;5040124;28;20504;-86
2022/05/11 05:26:49;;;;;;;17.40;10.70;;;16.80;99.90;;;;;;5024294;28;20498;-86
2022/05/11 05:31:59;;;;;;;16.90;10.55;;;17.00;99.90;;;;;;5043804;28;20047;-90
2022/05/11 05:34:25;;;;;;;16.73;10.32;;;17.10;99.90;;;;;;5028567;28;20128;-86
2022/05/11 05:36:51;;;;;;;12.43;10.18;;;17.20;99.90;;;;;;5044440;28;20442;-85
2022/05/11 05:39:17;;;;;;;11.85;10.23;;;17.20;99.90;;;;;;5037409;28;20538;-86
2022/05/11 05:41:43;;;;;;;16.55;10.13;;;17.20;99.90;;;;;;5043896;28;20036;-86
2022/05/11 05:44:08;;;;;;;22.67;11.10;;;17.30;99.90;;;;;;5046028;28;20526;-85
2022/05/11 05:46:35;;;;;;;15.13;10.05;;;17.30;99.90;;;;;;5040771;28;20044;-85
2022/05/11 05:49:01;;;;;;;19.40;10.73;;;17.40;99.90;;;;;;5038425;28;20041;-85
2022/05/11 05:51:27;;;;;;;12.82;10.52;;;17.50;99.90;;;;;;5038694;28;20041;-86
2022/05/11 05:53:52;;;;;;;12.40;10.43;;;17.60;99.90;;;;;;5029275;28;20029;-88
2022/05/11 05:56:18;;;;;;;14.57;10.57;;;17.60;99.90;;;;;;5042715;28;20597;-89
2022/05/11 05:58:45;;;;;;;16.23;10.20;;;17.70;99.90;;;;;;5027440;28;20032;-89
2022/05/11 06:01:12;;;;;;;19.38;10.48;;;17.80;99.90;;;;;;5041482;28;20174;-85
2022/05/11 06:03:38;;;;;;;20.63;10.75;;;17.90;99.90;;;;;;5042291;28;20032;-85
2022/05/11 06:06:06;;;;;;;19.40;10.68;;;17.90;99.90;;;;;;5040586;28;20021;-88
2022/05/11 06:08:32;;;;;;;17.73;10.93;;;18.00;99.90;;;;;;5023417;28;20040;-91
2022/05/11 06:10:58;;;;;;;21.92;10.98;;;18.10;99.90;;;;;;5044467;28;20404;-87
2022/05/11 06:13:24;;;;;;;17.65;10.73;;;18.20;99.90;;;;;;5040535;28;20025;-86
2022/05/11 06:15:52;;;;;;;18.50;10.68;;;18.30;99.90;;;;;;5034785;28;20173;-88
2022/05/11 06:18:18;;;;;;;19.60;10.98;;;18.40;99.90;;;;;;5043369;28;20028;-90
2022/05/11 06:20:51;;;;;;;18.30;10.63;;;18.50;99.90;;;;;;5027697;28;20021;-81
2022/05/11 06:23:18;;;;;;;18.75;11.38;;;18.60;99.90;;;;;;5041667;28;20059;-83
2022/05/11 06:25:43;;;;;;;16.27;9.55;;;18.60;99.90;;;;;;5038608;28;20028;-82
2022/05/11 06:28:12;;;;;;;14.43;9.73;;;18.80;99.90;;;;;;5043332;28;20115;-83
2022/05/11 06:30:38;;;;;;;21.17;9.85;;;18.90;99.90;;;;;;5038159;28;20440;-82
2022/05/11 06:33:04;;;;;;;30.10;10.75;;;19.10;99.90;;;;;;5042549;28;20024;-82
2022/05/11 06:35:30;;;;;;;20.48;9.57;;;19.20;99.90;;;;;;5019543;28;20021;-82
2022/05/11 06:37:57;;;;;;;43.42;10.52;;;19.30;99.90;;;;;;5024230;28;20487;-83
2022/05/11 06:40:23;;;;;;;28.27;10.00;;;19.30;99.90;;;;;;5039814;28;20491;-82
2022/05/11 06:42:49;;;;;;;19.13;9.20;;;19.50;99.90;;;;;;5042152;28;20087;-83
2022/05/11 06:45:19;;;;;;;23.05;10.25;;;19.50;99.90;;;;;;5018682;28;20028;-82
2022/05/11 06:47:46;;;;;;;24.13;9.40;;;19.70;99.90;;;;;;5040869;28;20125;-82
2022/05/11 06:50:12;;;;;;;18.13;8.90;;;19.70;99.90;;;;;;5045818;28;20021;-82
2022/05/11 06:52:39;;;;;;;19.40;10.73;;;19.90;99.90;;;;;;5020210;28;20040;-82
2022/05/11 07:00:34;;;;;;;18.95;10.55;;;20.20;99.90;;;;;;5042095;28;20594;-82
2022/05/11 07:03:00;;;;;;;13.60;9.15;;;20.30;99.90;;;;;;5038232;28;20029;-83
2022/05/11 07:05:26;;;;;;;25.98;9.85;;;20.50;99.90;;;;;;5038477;28;20381;-82
2022/05/11 07:07:53;;;;;;;12.65;8.88;;;20.60;99.90;;;;;;5040494;28;20060;-82
2022/05/11 07:10:20;;;;;;;18.95;10.07;;;20.60;99.90;;;;;;5025780;28;20021;-82
2022/05/11 07:12:46;;;;;;;21.33;9.68;;;20.70;99.90;;;;;;5021114;28;20079;-82
2022/05/11 07:15:14;;;;;;;17.48;9.68;;;20.80;99.90;;;;;;5036017;28;20494;-82
2022/05/11 07:17:42;;;;;;;22.00;9.27;;;21.00;99.90;;;;;;5041382;28;20113;-82
2022/05/11 07:20:36;;;;;;;20.45;9.27;;;21.10;99.90;;;;;;5034685;28;20055;-82
2022/05/11 07:23:07;;;;;;;23.20;8.80;;;21.30;99.90;;;;;;5013476;28;20040;-82
2022/05/11 07:25:34;;;;;;;14.45;8.50;;;21.40;99.90;;;;;;5042142;28;20084;-82
2022/05/11 07:28:01;;;;;;;17.60;8.93;;;21.60;99.90;;;;;;5041851;28;20094;-81
2022/05/11 07:30:35;;;;;;;16.13;8.02;;;21.70;99.90;;;;;;5042300;28;20033;-82
2022/05/11 07:33:02;;;;;;;18.25;8.52;;;21.80;99.90;;;;;;5040008;28;20404;-83
2022/05/11 07:35:28;;;;;;;13.90;7.55;;;21.80;99.90;;;;;;5041229;28;20466;-86
2022/05/11 07:37:55;;;;;;;13.73;7.45;;;21.90;99.90;;;;;;5042777;28;20056;-85
2022/05/11 07:40:23;;;;;;;10.18;7.30;;;21.90;99.90;;;;;;5043032;28;20048;-83
2022/05/11 07:42:49;;;;;;;13.40;7.22;;;22.00;99.90;;;;;;5038486;28;20029;-82
2022/05/11 07:45:17;;;;;;;17.00;8.50;;;22.10;99.90;;;;;;5028021;28;20029;-83
2022/05/11 07:47:43;;;;;;;21.35;7.90;;;22.10;99.90;;;;;;5037398;28;20041;-83
2022/05/11 07:50:15;;;;;;;18.42;8.10;;;22.10;99.90;;;;;;5025542;28;20041;-83
2022/05/11 07:52:43;;;;;;;12.67;7.30;;;22.10;99.90;;;;;;5036538;28;20037;-85
2022/05/11 07:55:09;;;;;;;14.10;8.20;;;22.20;99.90;;;;;;5038541;28;20641;-81
2022/05/11 08:00:20;;;;;;;17.50;9.95;;;22.30;99.90;;;;;;5037192;28;20059;-83
2022/05/11 08:02:46;;;;;;;17.85;10.13;;;22.30;99.90;;;;;;5038490;28;20032;-82
2022/05/11 08:05:14;;;;;;;23.52;10.23;;;22.40;99.90;;;;;;5033387;28;20021;-82
2022/05/11 08:07:41;;;;;;;29.83;11.20;;;22.40;99.90;;;;;;5039350;28;20918;-83
2022/05/11 08:10:10;;;;;;;17.65;9.35;;;22.40;99.90;;;;;;5035500;28;20017;-83
2022/05/11 08:12:36;;;;;;;32.63;11.43;;;22.50;99.90;;;;;;5040090;28;20033;-83
2022/05/11 08:15:02;;;;;;;20.58;9.75;;;22.60;99.90;;;;;;5034191;28;20530;-83
2022/05/11 08:17:34;;;;;;;19.25;9.45;;;22.70;99.90;;;;;;5038667;28;20067;-82
2022/05/11 08:20:03;;;;;;;16.73;9.13;;;22.70;99.90;;;;;;5044735;28;20017;-83
2022/05/11 08:22:32;;;;;;;26.33;10.77;;;22.70;99.90;;;;;;5038006;28;20021;-82
2022/05/11 08:24:58;;;;;;;12.88;8.77;;;22.70;99.90;;;;;;5036562;28;20025;-82
2022/05/11 08:27:28;;;;;;;18.92;8.57;;;22.70;99.90;;;;;;5038621;28;20104;-82
2022/05/11 08:35:24;;;;;;;13.45;8.50;;;22.60;99.90;;;;;;5047501;28;20125;-82
2022/05/11 08:37:49;;;;;;;17.30;8.55;;;22.60;99.90;;;;;;5042879;28;20506;-82
2022/05/11 08:40:38;;;;;;;15.52;8.30;;;22.60;99.90;;;;;;5047857;28;20119;-83
2022/05/11 08:43:10;;;;;;;14.27;8.07;;;22.60;99.90;;;;;;5027600;28;20044;-82
2022/05/11 08:45:50;;;;;;;13.50;8.30;;;22.70;99.90;;;;;;5031502;28;20045;-82
2022/05/11 08:48:34;;;;;;;18.80;8.77;;;22.80;99.90;;;;;;5043646;28;20072;-82
2022/05/11 08:51:03;;;;;;;17.52;8.48;;;22.70;99.90;;;;;;5024584;28;20045;-82
2022/05/11 08:53:40;;;;;;;15.82;7.55;;;22.70;99.90;;;;;;5045271;28;20464;-84
2022/05/11 08:56:15;;;;;;;14.93;8.40;;;22.80;99.90;;;;;;5044793;28;20032;-84
2022/05/11 08:58:52;;;;;;;14.10;8.07;;;22.80;99.90;;;;;;5040037;28;20508;-83
2022/05/11 09:01:29;;;;;;;14.18;7.97;;;22.80;99.90;;;;;;5041293;28;20029;-84
2022/05/11 09:03:59;;;;;;;14.57;8.93;;;22.90;99.90;;;;;;5045601;28;20032;-84
2022/05/11 09:06:30;;;;;;;15.68;8.27;;;22.90;99.90;;;;;;5043957;28;20075;-84
2022/05/11 09:08:58;;;;;;;15.33;8.77;;;22.90;99.90;;;;;;5039171;28;20458;-83
2022/05/11 09:11:40;;;;;;;14.05;8.13;;;22.80;99.90;;;;;;5045124;28;20130;-84
2022/05/11 09:14:06;;;;;;;14.50;8.97;;;22.80;99.90;;;;;;5041156;28;20421;-83
2022/05/11 09:16:50;;;;;;;12.77;8.40;;;22.90;99.90;;;;;;5044188;28;20766;-83
2022/05/11 09:19:22;;;;;;;18.33;8.50;;;23.00;99.90;;;;;;5039141;28;20048;-83
2022/05/11 09:21:51;;;;;;;11.23;8.70;;;23.10;99.90;;;;;;5043514;28;20036;-83
2022/05/11 09:24:17;;;;;;;15.90;9.18;;;23.30;99.90;;;;;;5048255;28;20067;-83
2022/05/11 09:26:50;;;;;;;22.50;9.68;;;23.30;99.90;;;;;;5042034;28;20060;-83
2022/05/11 09:29:19;;;;;;;19.75;8.80;;;23.30;99.90;;;;;;5045571;28;20033;-84
2022/05/11 09:31:46;;;;;;;16.48;8.07;;;23.30;99.90;;;;;;5043177;28;20451;-82
2022/05/11 09:34:25;;;;;;;13.00;9.15;;;23.30;99.90;;;;;;5047929;28;20031;-84
2022/05/11 09:37:02;;;;;;;22.42;11.45;;;23.40;99.90;;;;;;5042179;28;20049;-84
2022/05/11 09:39:30;;;;;;;14.73;8.90;;;23.60;99.90;;;;;;5045728;28;20369;-84
2022/05/11 09:42:10;;;;;;;17.38;8.90;;;23.70;99.90;;;;;;5043373;28;20117;-80
2022/05/11 09:44:43;;;;;;;15.07;8.85;;;23.50;99.90;;;;;;5046033;28;20399;-85
2022/05/11 09:47:30;;;;;;;13.30;8.30;;;23.40;99.90;;;;;;5041005;28;20045;-83
2022/05/11 09:50:15;;;;;;;15.90;7.97;;;23.30;99.90;;;;;;5046458;28;20028;-84
2022/05/11 09:52:41;;;;;;;18.80;8.23;;;23.30;99.90;;;;;;5037813;28;20506;-83
2022/05/11 09:55:24;;;;;;;11.13;7.70;;;23.20;99.90;;;;;;5020441;28;20017;-84
2022/05/11 09:58:03;;;;;;;13.73;7.97;;;23.20;99.90;;;;;;5042463;28;20634;-83
2022/05/11 10:00:36;;;;;;;16.38;9.15;;;23.20;99.90;;;;;;5042905;28;20037;-83
2022/05/11 10:03:04;;;;;;;;;;;23.10;99.90;;;;;;5040822;28;20029;-84
2022/05/11 10:05:47;;;;;;;16.25;8.20;;;23.00;99.90;;;;;;5039352;28;19909;-83
2022/05/11 10:08:30;;;;;;;15.50;9.10;;;23.10;99.90;;;;;;5040976;28;20029;-82
2022/05/11 10:11:18;;;;;;;16.60;8.57;;;23.00;99.90;;;;;;5033595;28;20435;-82
2022/05/11 10:13:59;;;;;;;17.10;8.38;;;22.80;99.90;;;;;;5039181;28;20025;-86
2022/05/11 10:22:30;;;;;;;14.43;9.18;;;23.10;99.90;;;;;;5042110;28;20044;-83
2022/05/11 10:25:08;;;;;;;10.30;8.52;;;23.10;99.90;;;;;;5027988;28;20040;-82
2022/05/11 10:28:11;;;;;;;19.45;8.60;;;22.90;99.90;;;;;;5035151;28;20036;-82
2022/05/11 10:30:57;;;;;;;12.18;8.68;;;22.90;99.90;;;;;;5031200;28;20036;-81
2022/05/11 10:33:50;;;;;;;20.83;8.77;;;23.00;99.90;;;;;;5037567;28;20399;-82
2022/05/11 10:36:19;;;;;;;12.55;7.90;;;23.00;99.90;;;;;;5041872;28;20045;-86
2022/05/11 10:39:06;;;;;;;16.48;9.07;;;23.00;99.90;;;;;;5044115;28;20033;-82
2022/05/11 10:41:46;;;;;;;17.38;9.13;;;22.90;99.90;;;;;;5022642;28;20052;-83
2022/05/11 10:44:45;;;;;;;17.08;9.57;;;22.80;99.90;;;;;;5041382;28;20029;-82
2022/05/11 10:47:35;;;;;;;16.90;10.35;;;22.70;99.90;;;;;;5038563;28;20377;-82
2022/05/11 10:50:23;;;;;;;15.63;10.13;;;22.60;99.90;;;;;;5019918;28;20372;-83
2022/05/11 10:53:04;;;;;;;36.15;11.27;;;22.50;99.90;;;;;;5037735;28;20037;-92
2022/05/11 10:55:58;;;;;;;17.95;10.05;;;22.50;99.90;;;;;;5037119;28;20490;-82
2022/05/11 10:58:43;;;;;;;19.67;8.75;;;22.50;99.90;;;;;;5042423;28;20053;-82
2022/05/11 11:01:11;;;;;;;19.77;9.18;;;22.70;99.90;;;;;;5024452;28;20117;-81
2022/05/11 11:04:02;;;;;;;16.60;8.77;;;22.90;99.90;;;;;;5019850;28;20087;-82
2022/05/11 11:09:25;;;;;;;15.70;8.73;;;22.90;99.90;;;;;;5041484;28;20420;-83
2022/05/11 11:12:14;;;;;;;14.57;8.43;;;23.30;99.90;;;;;;5040215;28;20033;-81
2022/05/11 11:14:47;;;;;;;14.15;8.05;;;23.40;99.90;;;;;;5012041;28;20174;-82
2022/05/11 11:17:18;;;;;;;14.88;8.18;;;23.60;99.90;;;;;;5034548;28;20487;-82
2022/05/11 11:19:49;;;;;;;15.93;7.55;;;23.70;99.90;;;;;;5038556;28;20067;-82
2022/05/11 11:22:15;;;;;;;14.13;8.07;;;23.70;99.90;;;;;;5035513;28;20029;-81
2022/05/11 11:24:43;;;;;;;10.95;7.13;;;23.70;99.90;;;;;;5039045;28;20560;-79
2022/05/11 11:27:09;;;;;;;14.45;7.53;;;23.60;99.90;;;;;;5040251;28;20057;-82
2022/05/11 11:29:58;;;;;;;19.67;7.45;;;23.50;99.90;;;;;;5037122;28;20033;-83
2022/05/11 11:32:24;;;;;;;10.48;7.22;;;23.60;99.90;;;;;;5020087;28;20041;-82
2022/05/11 11:35:11;;;;;;;13.13;6.78;;;23.90;99.90;;;;;;5035242;28;20029;-82
2022/05/11 11:37:41;;;;;;;15.10;7.50;;;24.00;99.90;;;;;;5035543;28;20025;-82
2022/05/11 11:40:12;;;;;;;11.65;6.93;;;24.10;99.90;;;;;;5037665;28;20052;-82
2022/05/11 11:42:39;;;;;;;17.33;7.78;;;24.20;99.90;;;;;;5037860;28;20392;-83
2022/05/11 11:45:31;;;;;;;15.43;7.55;;;24.40;99.90;;;;;;5036011;28;20096;-82
2022/05/11 11:48:17;;;;;;;18.25;7.70;;;24.30;99.90;;;;;;4987272;28;20056;-83
2022/05/11 11:50:50;;;;;;;25.88;7.75;;;24.50;99.90;;;;;;5031118;28;20040;-80
2022/05/11 11:53:31;;;;;;;11.70;6.90;;;24.40;99.90;;;;;;5041091;28;20029;-82
2022/05/11 11:56:22;;;;;;;19.42;8.95;;;24.30;99.90;;;;;;5042341;28;20078;-83
2022/05/11 11:59:06;;;;;;;13.55;7.00;;;24.20;99.90;;;;;;5035654;28;20026;-81
2022/05/11 12:01:36;;;;;;;10.10;6.38;;;25.10;99.90;;;;;;5036184;28;20025;-82
2022/05/11 12:04:06;;;;;;;19.27;7.88;;;27.90;99.90;;;;;;5042720;28;20024;-83
2022/05/11 12:15:07;;;;;;;17.42;7.18;;;31.60;98.90;;;;;;5037467;28;20039;-86
2022/05/11 12:17:36;;;;;;;12.68;6.32;;;31.30;99.00;;;;;;5037392;28;20040;-85
2022/05/11 12:20:10;;;;;;;20.05;6.90;;;31.30;98.60;;;;;;5034336;28;20484;-85
2022/05/11 12:22:45;;;;;;;14.02;6.28;;;31.50;98.30;;;;;;5034513;28;20025;-84
2022/05/11 12:25:38;;;;;;;12.68;6.68;;;31.70;98.30;;;;;;5034977;28;20018;-85
2022/05/11 12:28:26;;;;;;;11.90;6.07;;;32.60;96.20;;;;;;5037644;28;20025;-84
2022/05/11 12:30:52;;;;;;;16.27;6.63;;;32.90;94.30;;;;;;5032274;28;20029;-85
2022/05/11 12:33:24;;;;;;;14.55;5.75;;;33.00;94.40;;;;;;5037579;28;20120;-86
2022/05/11 12:35:50;;;;;;;;;;;33.20;91.90;;;;;;5019445;28;20384;-85
2022/05/11 12:38:32;;;;;;;13.40;6.32;;;34.40;91.40;;;;;;5043595;28;19991;-85
2022/05/11 12:41:09;;;;;;;16.58;5.85;;;35.40;89.30;;;;;;5023608;28;20428;-85
2022/05/11 12:43:40;;;;;;;15.25;6.22;;;36.90;83.80;;;;;;5036252;28;20025;-84
2022/05/11 12:46:15;;;;;;;11.32;5.28;;;36.70;80.70;;;;;;5040102;28;20044;-85
2022/05/11 12:48:53;;;;;;;14.05;5.90;;;37.10;81.20;;;;;;5037083;28;20075;-83
2022/05/11 12:51:30;;;;;;;14.43;5.65;;;37.60;78.50;;;;;;5036257;28;20099;-83
2022/05/11 12:53:58;;;;;;;16.95;5.53;;;38.20;74.90;;;;;;5038040;28;20054;-84
2022/05/11 12:56:31;;;;;;;19.95;5.75;;;37.40;75.60;;;;;;5019303;28;20480;-84
2022/05/11 12:59:03;;;;;;;15.90;6.03;;;37.10;76.20;;;;;;5021854;28;20037;-85
2022/05/11 13:01:32;;;;;;;16.25;5.57;;;37.40;73.10;;;;;;5036446;28;20099;-85
2022/05/11 13:04:01;;;;;;;19.00;5.80;;;37.40;74.00;;;;;;5039508;28;20033;-83
2022/05/11 13:06:34;;;;;;;12.20;5.40;;;38.30;68.80;;;;;;5036994;28;20018;-85
2022/05/11 13:09:16;;;;;;;9.25;4.93;;;37.50;68.50;;;;;;5040357;28;20029;-84
2022/05/11 13:11:42;;;;;;;17.48;5.55;;;37.20;67.90;;;;;;5033126;28;20037;-85
2022/05/11 13:14:16;;;;;;;12.70;5.63;;;37.10;68.70;;;;;;5035583;28;20037;-86
2022/05/11 13:16:54;;;;;;;19.17;5.22;;;37.10;66.20;;;;;;5036009;28;20883;-85
2022/05/11 13:19:19;;;;;;;19.98;5.32;;;37.10;65.30;;;;;;5037034;28;20728;-85
2022/05/11 13:21:47;;;;;;;19.58;5.85;;;37.40;67.70;;;;;;5040126;28;20064;-83
2022/05/11 13:24:13;;;;;;;25.20;6.30;;;38.10;63.10;;;;;;5020090;28;20148;-83
2022/05/11 13:26:44;;;;;;;15.07;5.13;;;37.80;62.90;;;;;;5041457;28;20647;-86
2022/05/11 13:29:13;;;;;;;17.25;5.30;;;37.10;63.80;;;;;;5040171;28;20047;-84
2022/05/11 13:31:38;;;;;;;9.70;4.32;;;36.90;63.70;;;;;;5018335;28;20592;-84
2022/05/11 13:34:05;;;;;;;28.55;5.45;;;37.20;64.10;;;;;;5044135;28;20082;-83
2022/05/11 13:36:45;;;;;;;11.05;4.82;;;37.70;63.70;;;;;;5039099;28;20033;-84
2022/05/11 13:39:13;;;;;;;13.07;4.97;;;37.50;61.70;;;;;;5034367;28;20034;-85
2022/05/11 13:41:48;;;;;;;11.82;4.80;;;37.30;61.50;;;;;;5035559;28;20632;-85
2022/05/11 13:44:14;;;;;;;13.63;4.65;;;36.60;62.70;;;;;;5034483;28;20028;-85